sensor_id;sensor_type;location;lat;lon;timestamp;pressure;altitude;pressure_sealevel;temperature
70819;BMP280;58439;51.046;13.692;2023-04-25T00:00:20;99169.25;;;9.28
70819;BMP280;58439;51.046;13.692;2023-04-25T00:02:47;99167.28;;;9.30
70819;BMP280;58439;51.046;13.692;2023-04-25T00:05:17;99168.06;;;9.38
70819;BMP280;58439;51.046;13.692;2023-04-25T00:07:46;99167.81;;;9.46
70819;BMP280;58439;51.046;13.692;2023-04-25T00:10:13;99164.78;;;9.49
70819;BMP280;58439;51.046;13.692;2023-04-25T00:12:42;99159.75;;;9.54
70819;BMP280;58439;51.046;13.692;2023-04-25T00:15:10;99165.38;;;9.57
70819;BMP280;58439;51.046;13.692;2023-04-25T00:17:38;99165.75;;;9.61
70819;BMP280;58439;51.046;13.692;2023-04-25T00:20:06;99158.94;;;9.60
70819;BMP280;58439;51.046;13.692;2023-04-25T00:22:36;99158.34;;;9.58
70819;BMP280;58439;51.046;13.692;2023-04-25T00:25:05;99153.31;;;9.56
70819;BMP280;58439;51.046;13.692;2023-04-25T00:27:33;99159.97;;;9.52
70819;BMP280;58439;51.046;13.692;2023-04-25T00:30:00;99159.78;;;9.47
70819;BMP280;58439;51.046;13.692;2023-04-25T00:32:27;99161.81;;;9.39
70819;BMP280;58439;51.046;13.692;2023-04-25T00:34:56;99174.88;;;9.32
70819;BMP280;58439;51.046;13.692;2023-04-25T00:37:25;99168.09;;;9.24
70819;BMP280;58439;51.046;13.692;2023-04-25T00:39:52;99164.44;;;9.25
70819;BMP280;58439;51.046;13.692;2023-04-25T00:42:21;99165.47;;;9.24
70819;BMP280;58439;51.046;13.692;2023-04-25T00:44:49;99164.44;;;9.25
70819;BMP280;58439;51.046;13.692;2023-04-25T00:47:18;99157.06;;;9.22
70819;BMP280;58439;51.046;13.692;2023-04-25T00:49:45;99152.44;;;9.18
70819;BMP280;58439;51.046;13.692;2023-04-25T00:52:12;99155.66;;;9.06
70819;BMP280;58439;51.046;13.692;2023-04-25T00:54:40;99159.72;;;8.96
70819;BMP280;58439;51.046;13.692;2023-04-25T00:57:11;99158.88;;;8.89
70819;BMP280;58439;51.046;13.692;2023-04-25T00:59:39;99149.47;;;8.81
70819;BMP280;58439;51.046;13.692;2023-04-25T01:02:10;99153.69;;;8.75
70819;BMP280;58439;51.046;13.692;2023-04-25T01:04:37;99145.06;;;8.68
70819;BMP280;58439;51.046;13.692;2023-04-25T01:07:05;99154.09;;;8.66
70819;BMP280;58439;51.046;13.692;2023-04-25T01:09:32;99146.47;;;8.64
70819;BMP280;58439;51.046;13.692;2023-04-25T01:11:59;99145.84;;;8.62
70819;BMP280;58439;51.046;13.692;2023-04-25T01:14:28;99141.06;;;8.59
70819;BMP280;58439;51.046;13.692;2023-04-25T01:16:57;99151.28;;;8.54
70819;BMP280;58439;51.046;13.692;2023-04-25T01:19:25;99149.25;;;8.49
70819;BMP280;58439;51.046;13.692;2023-04-25T01:21:53;99153.47;;;8.44
70819;BMP280;58439;51.046;13.692;2023-04-25T01:24:20;99148.84;;;8.39
70819;BMP280;58439;51.046;13.692;2023-04-25T01:26:49;99158.09;;;8.35
70819;BMP280;58439;51.046;13.692;2023-04-25T01:29:22;99143.84;;;8.31
70819;BMP280;58439;51.046;13.692;2023-04-25T01:31:51;99142.03;;;8.32
70819;BMP280;58439;51.046;13.692;2023-04-25T01:34:20;99147.00;;;8.26
70819;BMP280;58439;51.046;13.692;2023-04-25T01:36:50;99144.84;;;8.23
70819;BMP280;58439;51.046;13.692;2023-04-25T01:39:18;99150.44;;;8.20
70819;BMP280;58439;51.046;13.692;2023-04-25T01:41:47;99143.78;;;8.18
70819;BMP280;58439;51.046;13.692;2023-04-25T01:44:15;99147.00;;;8.13
70819;BMP280;58439;51.046;13.692;2023-04-25T01:46:43;99143.19;;;8.09
70819;BMP280;58439;51.046;13.692;2023-04-25T01:49:11;99146.38;;;8.05
70819;BMP280;58439;51.046;13.692;2023-04-25T01:51:39;99146.34;;;7.98
70819;BMP280;58439;51.046;13.692;2023-04-25T01:54:08;99160.16;;;7.92
70819;BMP280;58439;51.046;13.692;2023-04-25T01:56:38;99148.69;;;7.86
70819;BMP280;58439;51.046;13.692;2023-04-25T01:59:08;99153.31;;;7.84
70819;BMP280;58439;51.046;13.692;2023-04-25T02:01:54;99148.28;;;7.83
70819;BMP280;58439;51.046;13.692;2023-04-25T02:04:27;99152.91;;;7.81
70819;BMP280;58439;51.046;13.692;2023-04-25T02:06:54;99157.50;;;7.79
70819;BMP280;58439;51.046;13.692;2023-04-25T02:09:22;99161.28;;;7.76
70819;BMP280;58439;51.046;13.692;2023-04-25T02:11:54;99155.06;;;7.70
70819;BMP280;58439;51.046;13.692;2023-04-25T02:14:26;99150.00;;;7.62
70819;BMP280;58439;51.046;13.692;2023-04-25T02:17:17;99154.22;;;7.57
70819;BMP280;58439;51.046;13.692;2023-04-25T02:19:45;99155.34;;;7.47
70819;BMP280;58439;51.046;13.692;2023-04-25T02:22:12;99157.13;;;7.40
70819;BMP280;58439;51.046;13.692;2023-04-25T02:24:39;99148.88;;;7.37
70819;BMP280;58439;51.046;13.692;2023-04-25T02:27:06;99149.28;;;7.34
70819;BMP280;58439;51.046;13.692;2023-04-25T02:29:35;99152.44;;;7.29
70819;BMP280;58439;51.046;13.692;2023-04-25T02:32:02;99142.81;;;7.23
70819;BMP280;58439;51.046;13.692;2023-04-25T02:34:29;99144.16;;;7.19
70819;BMP280;58439;51.046;13.692;2023-04-25T02:37:00;99143.72;;;7.15
70819;BMP280;58439;51.046;13.692;2023-04-25T02:39:27;99139.34;;;7.16
70819;BMP280;58439;51.046;13.692;2023-04-25T02:41:55;99141.75;;;7.17
70819;BMP280;58439;51.046;13.692;2023-04-25T02:44:23;99140.75;;;7.18
70819;BMP280;58439;51.046;13.692;2023-04-25T02:46:50;99139.75;;;7.19
70819;BMP280;58439;51.046;13.692;2023-04-25T02:49:18;99144.38;;;7.17
70819;BMP280;58439;51.046;13.692;2023-04-25T02:51:45;99140.53;;;7.13
70819;BMP280;58439;51.046;13.692;2023-04-25T02:54:12;99144.53;;;7.09
70819;BMP280;58439;51.046;13.692;2023-04-25T02:56:43;99143.09;;;7.07
70819;BMP280;58439;51.046;13.692;2023-04-25T02:59:15;99143.09;;;7.07
70819;BMP280;58439;51.046;13.692;2023-04-25T03:01:42;99146.69;;;7.06
70819;BMP280;58439;51.046;13.692;2023-04-25T03:04:09;99139.09;;;7.04
70819;BMP280;58439;51.046;13.692;2023-04-25T03:06:36;99144.44;;;7.03
70819;BMP280;58439;51.046;13.692;2023-04-25T03:09:03;99135.22;;;7.00
70819;BMP280;58439;51.046;13.692;2023-04-25T03:11:31;99146.19;;;6.96
70819;BMP280;58439;51.046;13.692;2023-04-25T03:13:58;99143.16;;;6.92
70819;BMP280;58439;51.046;13.692;2023-04-25T03:16:25;99139.16;;;6.89
70819;BMP280;58439;51.046;13.692;2023-04-25T03:18:52;99146.53;;;6.86
70819;BMP280;58439;51.046;13.692;2023-04-25T03:21:20;99143.72;;;6.81
70819;BMP280;58439;51.046;13.692;2023-04-25T03:23:47;99142.06;;;6.73
70819;BMP280;58439;51.046;13.692;2023-04-25T03:26:14;99143.22;;;6.71
70819;BMP280;58439;51.046;13.692;2023-04-25T03:28:42;99136.56;;;6.68
70819;BMP280;58439;51.046;13.692;2023-04-25T03:31:09;99135.34;;;6.64
70819;BMP280;58439;51.046;13.692;2023-04-25T03:33:36;99142.53;;;6.62
70819;BMP280;58439;51.046;13.692;2023-04-25T03:36:04;99147.13;;;6.60
70819;BMP280;58439;51.046;13.692;2023-04-25T03:38:32;99140.31;;;6.59
70819;BMP280;58439;51.046;13.692;2023-04-25T03:41:00;99136.28;;;6.56
70819;BMP280;58439;51.046;13.692;2023-04-25T03:43:41;99140.41;;;6.51
70819;BMP280;58439;51.046;13.692;2023-04-25T03:46:11;99137.59;;;6.46
70819;BMP280;58439;51.046;13.692;2023-04-25T03:48:40;99136.97;;;6.44
70819;BMP280;58439;51.046;13.692;2023-04-25T03:51:11;99145.41;;;6.46
70819;BMP280;58439;51.046;13.692;2023-04-25T03:53:42;99140.00;;;6.47
70819;BMP280;58439;51.046;13.692;2023-04-25T03:56:30;99137.19;;;6.49
70819;BMP280;58439;51.046;13.692;2023-04-25T03:59:05;99141.56;;;6.48
70819;BMP280;58439;51.046;13.692;2023-04-25T04:01:32;99146.78;;;6.48
70819;BMP280;58439;51.046;13.692;2023-04-25T04:03:59;99140.19;;;6.46
70819;BMP280;58439;51.046;13.692;2023-04-25T04:06:29;99147.19;;;6.45
70819;BMP280;58439;51.046;13.692;2023-04-25T04:09:03;99142.16;;;6.44
70819;BMP280;58439;51.046;13.692;2023-04-25T04:11:34;99137.75;;;6.44
70819;BMP280;58439;51.046;13.692;2023-04-25T04:14:07;99144.16;;;6.48
70819;BMP280;58439;51.046;13.692;2023-04-25T04:16:37;99141.84;;;6.53
70819;BMP280;58439;51.046;13.692;2023-04-25T04:19:04;99140.91;;;6.61
70819;BMP280;58439;51.046;13.692;2023-04-25T04:21:34;99139.97;;;6.69
70819;BMP280;58439;51.046;13.692;2023-04-25T04:24:02;99144.41;;;6.75
70819;BMP280;58439;51.046;13.692;2023-04-25T04:26:38;99145.66;;;6.79
70819;BMP280;58439;51.046;13.692;2023-04-25T04:29:23;99149.69;;;6.81
70819;BMP280;58439;51.046;13.692;2023-04-25T04:32:09;99154.69;;;6.83
70819;BMP280;58439;51.046;13.692;2023-04-25T04:34:36;99151.75;;;6.86
70819;BMP280;58439;51.046;13.692;2023-04-25T04:37:05;99153.94;;;6.89
70819;BMP280;58439;51.046;13.692;2023-04-25T04:39:35;99152.19;;;6.96
70819;BMP280;58439;51.046;13.692;2023-04-25T04:42:18;99156.28;;;7.05
70819;BMP280;58439;51.046;13.692;2023-04-25T04:45:01;99159.53;;;7.14
70819;BMP280;58439;51.046;13.692;2023-04-25T04:47:47;99153.59;;;7.20
70819;BMP280;58439;51.046;13.692;2023-04-25T04:50:27;99168.59;;;7.25
70819;BMP280;58439;51.046;13.692;2023-04-25T04:53:15;99157.28;;;7.32
70819;BMP280;58439;51.046;13.692;2023-04-25T04:56:19;99162.31;;;7.40
70819;BMP280;58439;51.046;13.692;2023-04-25T04:59:00;99170.16;;;7.47
70819;BMP280;58439;51.046;13.692;2023-04-25T05:01:58;99166.41;;;7.56
70819;BMP280;58439;51.046;13.692;2023-04-25T05:04:41;99173.06;;;7.65
70819;BMP280;58439;51.046;13.692;2023-04-25T05:07:44;99175.75;;;7.85
70819;BMP280;58439;51.046;13.692;2023-04-25T05:11:05;99174.06;;;8.12
70819;BMP280;58439;51.046;13.692;2023-04-25T05:13:38;99174.25;;;8.17
70819;BMP280;58439;51.046;13.692;2023-04-25T05:16:25;99172.88;;;8.28
70819;BMP280;58439;51.046;13.692;2023-04-25T05:19:27;99178.31;;;8.40
70819;BMP280;58439;51.046;13.692;2023-04-25T05:22:18;99172.13;;;8.54
70819;BMP280;58439;51.046;13.692;2023-04-25T05:25:10;99172.34;;;8.66
70819;BMP280;58439;51.046;13.692;2023-04-25T05:28:08;99168.50;;;8.62
70819;BMP280;58439;51.046;13.692;2023-04-25T05:31:00;99172.34;;;8.72
70819;BMP280;58439;51.046;13.692;2023-04-25T05:33:49;99171.53;;;8.72
70819;BMP280;58439;51.046;13.692;2023-04-25T05:36:21;99173.56;;;8.83
70819;BMP280;58439;51.046;13.692;2023-04-25T05:38:51;99170.09;;;8.89
70819;BMP280;58439;51.046;13.692;2023-04-25T05:41:44;99174.13;;;8.98
70819;BMP280;58439;51.046;13.692;2023-04-25T05:44:29;99180.13;;;9.12
70819;BMP280;58439;51.046;13.692;2023-04-25T05:47:15;99177.75;;;9.04
70819;BMP280;58439;51.046;13.692;2023-04-25T05:49:57;99174.72;;;9.07
70819;BMP280;58439;51.046;13.692;2023-04-25T05:52:43;99183.75;;;9.18
70819;BMP280;58439;51.046;13.692;2023-04-25T05:55:23;99184.09;;;9.34
70819;BMP280;58439;51.046;13.692;2023-04-25T05:57:50;99176.09;;;9.29
70819;BMP280;58439;51.046;13.692;2023-04-25T06:00:17;99188.72;;;9.39
70819;BMP280;58439;51.046;13.692;2023-04-25T06:02:48;99184.06;;;9.48
70819;BMP280;58439;51.046;13.692;2023-04-25T06:05:16;99171.66;;;9.50
70819;BMP280;58439;51.046;13.692;2023-04-25T06:07:45;99174.44;;;9.48
70819;BMP280;58439;51.046;13.692;2023-04-25T06:10:13;99184.88;;;9.48
70819;BMP280;58439;51.046;13.692;2023-04-25T06:12:42;99185.06;;;9.53
70819;BMP280;58439;51.046;13.692;2023-04-25T06:15:10;99175.22;;;9.55
70819;BMP280;58439;51.046;13.692;2023-04-25T06:17:55;99186.69;;;9.48
70819;BMP280;58439;51.046;13.692;2023-04-25T06:20:22;99180.44;;;9.55
70819;BMP280;58439;51.046;13.692;2023-04-25T06:22:52;99184.63;;;9.63
70819;BMP280;58439;51.046;13.692;2023-04-25T06:25:25;99178.38;;;9.64
70819;BMP280;58439;51.046;13.692;2023-04-25T06:27:53;99187.25;;;9.70
70819;BMP280;58439;51.046;13.692;2023-04-25T06:30:21;99183.38;;;9.72
70819;BMP280;58439;51.046;13.692;2023-04-25T06:32:56;99191.59;;;9.82
70819;BMP280;58439;51.046;13.692;2023-04-25T06:35:23;99183.91;;;9.94
70819;BMP280;58439;51.046;13.692;2023-04-25T06:37:50;99183.91;;;9.94
70819;BMP280;58439;51.046;13.692;2023-04-25T06:40:21;99186.72;;;9.92
70819;BMP280;58439;51.046;13.692;2023-04-25T06:42:48;99182.00;;;10.08
70819;BMP280;58439;51.046;13.692;2023-04-25T06:45:50;99185.41;;;10.08
70819;BMP280;58439;51.046;13.692;2023-04-25T06:48:19;99174.16;;;10.14
70819;BMP280;58439;51.046;13.692;2023-04-25T06:50:46;99182.53;;;10.23
70819;BMP280;58439;51.046;13.692;2023-04-25T06:53:13;99185.13;;;10.30
70819;BMP280;58439;51.046;13.692;2023-04-25T06:55:43;99175.22;;;10.32
70819;BMP280;58439;51.046;13.692;2023-04-25T06:58:18;99177.84;;;10.32
70819;BMP280;58439;51.046;13.692;2023-04-25T07:01:04;99175.44;;;10.37
70819;BMP280;58439;51.046;13.692;2023-04-25T07:03:31;99181.56;;;10.49
70819;BMP280;58439;51.046;13.692;2023-04-25T07:06:03;99185.47;;;10.65
70819;BMP280;58439;51.046;13.692;2023-04-25T07:08:30;99195.81;;;10.78
70819;BMP280;58439;51.046;13.692;2023-04-25T07:10:58;99185.88;;;10.87
70819;BMP280;58439;51.046;13.692;2023-04-25T07:13:25;99182.00;;;10.96
70819;BMP280;58439;51.046;13.692;2023-04-25T07:15:52;99185.09;;;10.86
70819;BMP280;58439;51.046;13.692;2023-04-25T07:18:23;99183.34;;;10.98
70819;BMP280;58439;51.046;13.692;2023-04-25T07:20:51;99180.25;;;11.08
70819;BMP280;58439;51.046;13.692;2023-04-25T07:23:18;99178.16;;;11.17
70819;BMP280;58439;51.046;13.692;2023-04-25T07:25:46;99190.97;;;11.25
70819;BMP280;58439;51.046;13.692;2023-04-25T07:28:19;99191.81;;;11.37
70819;BMP280;58439;51.046;13.692;2023-04-25T07:30:47;99198.47;;;11.40
70819;BMP280;58439;51.046;13.692;2023-04-25T07:33:14;99193.00;;;11.41
70819;BMP280;58439;51.046;13.692;2023-04-25T07:35:41;99190.09;;;11.49
70819;BMP280;58439;51.046;13.692;2023-04-25T07:38:09;99193.06;;;11.53
70819;BMP280;58439;51.046;13.692;2023-04-25T07:40:37;99210.97;;;11.56
70819;BMP280;58439;51.046;13.692;2023-04-25T07:43:07;99194.69;;;11.84
70819;BMP280;58439;51.046;13.692;2023-04-25T07:45:45;99190.94;;;12.22
70819;BMP280;58439;51.046;13.692;2023-04-25T07:48:18;99182.47;;;12.50
70819;BMP280;58439;51.046;13.692;2023-04-25T07:50:50;99194.50;;;12.27
70819;BMP280;58439;51.046;13.692;2023-04-25T07:53:18;99197.63;;;12.17
70819;BMP280;58439;51.046;13.692;2023-04-25T07:55:53;99201.34;;;12.28
70819;BMP280;58439;51.046;13.692;2023-04-25T07:58:21;99208.19;;;12.53
70819;BMP280;58439;51.046;13.692;2023-04-25T08:00:53;99210.16;;;12.81
70819;BMP280;58439;51.046;13.692;2023-04-25T08:03:35;99204.38;;;13.14
70819;BMP280;58439;51.046;13.692;2023-04-25T08:06:07;99213.03;;;13.02
70819;BMP280;58439;51.046;13.692;2023-04-25T08:08:43;99210.75;;;12.71
70819;BMP280;58439;51.046;13.692;2023-04-25T08:11:12;99216.25;;;12.81
70819;BMP280;58439;51.046;13.692;2023-04-25T08:13:40;99223.88;;;12.83
70819;BMP280;58439;51.046;13.692;2023-04-25T08:16:07;99224.13;;;12.69
70819;BMP280;58439;51.046;13.692;2023-04-25T08:18:34;99227.88;;;12.62
70819;BMP280;58439;51.046;13.692;2023-04-25T08:21:01;99226.03;;;12.62
70819;BMP280;58439;51.046;13.692;2023-04-25T08:23:29;99228.75;;;12.56
70819;BMP280;58439;51.046;13.692;2023-04-25T08:26:23;99225.91;;;12.46
70819;BMP280;58439;51.046;13.692;2023-04-25T08:28:50;99222.84;;;12.19
70819;BMP280;58439;51.046;13.692;2023-04-25T08:31:18;99224.91;;;12.16
70819;BMP280;58439;51.046;13.692;2023-04-25T08:33:55;99226.03;;;12.21
70819;BMP280;58439;51.046;13.692;2023-04-25T08:36:33;99232.50;;;12.06
70819;BMP280;58439;51.046;13.692;2023-04-25T08:39:18;99222.53;;;11.97
70819;BMP280;58439;51.046;13.692;2023-04-25T08:42:17;99234.69;;;12.09
70819;BMP280;58439;51.046;13.692;2023-04-25T08:45:02;99235.81;;;12.13
70819;BMP280;58439;51.046;13.692;2023-04-25T08:47:45;99225.88;;;12.04
70819;BMP280;58439;51.046;13.692;2023-04-25T08:50:25;99233.91;;;11.91
70819;BMP280;58439;51.046;13.692;2023-04-25T08:53:12;99248.31;;;11.81
70819;BMP280;58439;51.046;13.692;2023-04-25T08:55:46;99248.31;;;11.81
70819;BMP280;58439;51.046;13.692;2023-04-25T08:58:15;99252.22;;;11.79
70819;BMP280;58439;51.046;13.692;2023-04-25T09:00:46;99254.59;;;11.99
70819;BMP280;58439;51.046;13.692;2023-04-25T09:03:15;99263.50;;;12.09
70819;BMP280;58439;51.046;13.692;2023-04-25T09:05:45;99261.84;;;11.97
70819;BMP280;58439;51.046;13.692;2023-04-25T09:08:14;99261.59;;;11.86
70819;BMP280;58439;51.046;13.692;2023-04-25T09:10:42;99267.25;;;11.83
70819;BMP280;58439;51.046;13.692;2023-04-25T09:13:12;99270.56;;;11.79
70819;BMP280;58439;51.046;13.692;2023-04-25T09:16:07;99280.31;;;11.72
70819;BMP280;58439;51.046;13.692;2023-04-25T09:18:57;99278.41;;;11.79
70819;BMP280;58439;51.046;13.692;2023-04-25T09:21:25;99273.47;;;11.71
70819;BMP280;58439;51.046;13.692;2023-04-25T09:23:53;99275.22;;;11.58
70819;BMP280;58439;51.046;13.692;2023-04-25T09:26:21;99282.75;;;11.67
70819;BMP280;58439;51.046;13.692;2023-04-25T09:29:05;99286.63;;;11.82
70819;BMP280;58439;51.046;13.692;2023-04-25T09:31:35;99283.50;;;11.74
70819;BMP280;58439;51.046;13.692;2023-04-25T09:34:04;99288.13;;;11.53
70819;BMP280;58439;51.046;13.692;2023-04-25T09:36:41;99300.84;;;11.31
70819;BMP280;58439;51.046;13.692;2023-04-25T09:39:28;99307.59;;;10.96
70819;BMP280;58439;51.046;13.692;2023-04-25T09:42:05;99300.41;;;10.85
70819;BMP280;58439;51.046;13.692;2023-04-25T09:44:33;99302.63;;;10.81
70819;BMP280;58439;51.046;13.692;2023-04-25T09:47:01;99304.41;;;10.87
70819;BMP280;58439;51.046;13.692;2023-04-25T09:49:30;99299.06;;;11.00
70819;BMP280;58439;51.046;13.692;2023-04-25T09:52:03;99305.66;;;11.10
70819;BMP280;58439;51.046;13.692;2023-04-25T09:54:41;99306.06;;;11.31
70819;BMP280;58439;51.046;13.692;2023-04-25T09:59:51;99306.28;;;12.10
70819;BMP280;58439;51.046;13.692;2023-04-25T10:02:21;99316.88;;;12.45
70819;BMP280;58439;51.046;13.692;2023-04-25T10:04:54;99312.34;;;12.52
70819;BMP280;58439;51.046;13.692;2023-04-25T10:07:36;99311.16;;;12.78
70819;BMP280;58439;51.046;13.692;2023-04-25T10:10:12;99312.88;;;12.84
70819;BMP280;58439;51.046;13.692;2023-04-25T10:12:39;99314.72;;;12.95
70819;BMP280;58439;51.046;13.692;2023-04-25T10:15:08;99318.03;;;13.02
70819;BMP280;58439;51.046;13.692;2023-04-25T10:17:36;99319.38;;;12.82
70819;BMP280;58439;51.046;13.692;2023-04-25T10:20:08;99326.50;;;12.51
70819;BMP280;58439;51.046;13.692;2023-04-25T10:22:42;99316.00;;;12.51
70819;BMP280;58439;51.046;13.692;2023-04-25T10:25:11;99326.44;;;12.69
70819;BMP280;58439;51.046;13.692;2023-04-25T10:27:39;99329.47;;;13.20
70819;BMP280;58439;51.046;13.692;2023-04-25T10:30:09;99333.38;;;13.64
70819;BMP280;58439;51.046;13.692;2023-04-25T10:32:45;99326.78;;;13.78
70819;BMP280;58439;51.046;13.692;2023-04-25T10:35:23;99333.66;;;13.68
70819;BMP280;58439;51.046;13.692;2023-04-25T10:38:09;99335.19;;;13.17
70819;BMP280;58439;51.046;13.692;2023-04-25T10:40:37;99335.50;;;12.85
70819;BMP280;58439;51.046;13.692;2023-04-25T10:43:45;99335.97;;;12.52
70819;BMP280;58439;51.046;13.692;2023-04-25T10:46:26;99331.69;;;12.39
70819;BMP280;58439;51.046;13.692;2023-04-25T10:48:57;99334.28;;;12.09
70819;BMP280;58439;51.046;13.692;2023-04-25T10:51:26;99334.34;;;11.84
70819;BMP280;58439;51.046;13.692;2023-04-25T10:54:05;99339.06;;;11.57
70819;BMP280;58439;51.046;13.692;2023-04-25T10:56:42;99338.97;;;11.21
70819;BMP280;58439;51.046;13.692;2023-04-25T11:01:45;99347.56;;;10.71
70819;BMP280;58439;51.046;13.692;2023-04-25T11:04:33;99352.00;;;10.71
70819;BMP280;58439;51.046;13.692;2023-04-25T11:07:44;99362.28;;;11.04
70819;BMP280;58439;51.046;13.692;2023-04-25T11:10:33;99351.69;;;11.42
70819;BMP280;58439;51.046;13.692;2023-04-25T11:13:04;99359.56;;;11.60
70819;BMP280;58439;51.046;13.692;2023-04-25T11:15:31;99358.94;;;11.65
70819;BMP280;58439;51.046;13.692;2023-04-25T11:17:58;99365.00;;;11.84
70819;BMP280;58439;51.046;13.692;2023-04-25T11:20:26;99375.47;;;11.84
70819;BMP280;58439;51.046;13.692;2023-04-25T11:22:58;99383.47;;;11.89
70819;BMP280;58439;51.046;13.692;2023-04-25T11:25:29;99377.47;;;12.07
70819;BMP280;58439;51.046;13.692;2023-04-25T11:27:59;99384.00;;;12.34
70819;BMP280;58439;51.046;13.692;2023-04-25T11:30:28;99392.94;;;12.45
70819;BMP280;58439;51.046;13.692;2023-04-25T11:32:57;99386.19;;;12.37
70819;BMP280;58439;51.046;13.692;2023-04-25T11:35:25;99390.06;;;12.65
70819;BMP280;58439;51.046;13.692;2023-04-25T11:37:52;99393.81;;;12.57
70819;BMP280;58439;51.046;13.692;2023-04-25T11:40:19;99382.94;;;12.84
70819;BMP280;58439;51.046;13.692;2023-04-25T11:42:47;99401.75;;;12.51
70819;BMP280;58439;51.046;13.692;2023-04-25T11:45:14;99402.84;;;12.61
70819;BMP280;58439;51.046;13.692;2023-04-25T11:47:42;99393.03;;;12.98
70819;BMP280;58439;51.046;13.692;2023-04-25T11:50:10;99400.00;;;13.16
70819;BMP280;58439;51.046;13.692;2023-04-25T11:52:39;99405.19;;;13.35
70819;BMP280;58439;51.046;13.692;2023-04-25T11:55:17;99404.75;;;13.26
70819;BMP280;58439;51.046;13.692;2023-04-25T11:57:48;99413.84;;;12.82
70819;BMP280;58439;51.046;13.692;2023-04-25T12:00:22;99403.09;;;12.53
70819;BMP280;58439;51.046;13.692;2023-04-25T12:02:57;99409.19;;;12.54
70819;BMP280;58439;51.046;13.692;2023-04-25T12:05:31;99406.50;;;12.42
70819;BMP280;58439;51.046;13.692;2023-04-25T12:08:14;99407.25;;;12.61
70819;BMP280;58439;51.046;13.692;2023-04-25T12:10:45;99410.91;;;12.60
70819;BMP280;58439;51.046;13.692;2023-04-25T12:13:25;99402.94;;;12.36
70819;BMP280;58439;51.046;13.692;2023-04-25T12:15:55;99402.59;;;12.14
70819;BMP280;58439;51.046;13.692;2023-04-25T12:18:24;99418.75;;;12.11
70819;BMP280;58439;51.046;13.692;2023-04-25T12:20:54;99407.97;;;12.01
70819;BMP280;58439;51.046;13.692;2023-04-25T12:23:29;99415.97;;;11.88
70819;BMP280;58439;51.046;13.692;2023-04-25T12:25:57;99414.84;;;11.77
70819;BMP280;58439;51.046;13.692;2023-04-25T12:28:25;99409.97;;;11.81
70819;BMP280;58439;51.046;13.692;2023-04-25T12:31:05;99412.25;;;12.32
70819;BMP280;58439;51.046;13.692;2023-04-25T12:33:37;99415.16;;;12.91
70819;BMP280;58439;51.046;13.692;2023-04-25T12:36:07;99412.13;;;13.99
70819;BMP280;58439;51.046;13.692;2023-04-25T12:38:41;99399.59;;;15.20
70819;BMP280;58439;51.046;13.692;2023-04-25T12:41:09;99400.38;;;15.21
70819;BMP280;58439;51.046;13.692;2023-04-25T12:43:36;99405.31;;;14.27
70819;BMP280;58439;51.046;13.692;2023-04-25T12:46:03;99411.03;;;13.60
70819;BMP280;58439;51.046;13.692;2023-04-25T12:48:30;99412.34;;;13.16
70819;BMP280;58439;51.046;13.692;2023-04-25T12:50:58;99409.31;;;12.89
70819;BMP280;58439;51.046;13.692;2023-04-25T12:53:25;99421.91;;;12.68
70819;BMP280;58439;51.046;13.692;2023-04-25T12:55:53;99410.13;;;12.41
70819;BMP280;58439;51.046;13.692;2023-04-25T12:58:21;99422.25;;;12.42
70819;BMP280;58439;51.046;13.692;2023-04-25T13:00:48;99419.81;;;12.40
70819;BMP280;58439;51.046;13.692;2023-04-25T13:03:15;99419.16;;;12.45
70819;BMP280;58439;51.046;13.692;2023-04-25T13:05:43;99422.66;;;12.21
70819;BMP280;58439;51.046;13.692;2023-04-25T13:08:11;99418.81;;;11.86
70819;BMP280;58439;51.046;13.692;2023-04-25T13:10:38;99429.63;;;11.72
70819;BMP280;58439;51.046;13.692;2023-04-25T13:13:06;99429.00;;;11.51
70819;BMP280;58439;51.046;13.692;2023-04-25T13:15:33;99422.22;;;11.12
70819;BMP280;58439;51.046;13.692;2023-04-25T13:18:00;99431.13;;;11.05
70819;BMP280;58439;51.046;13.692;2023-04-25T13:20:28;99435.97;;;10.94
70819;BMP280;58439;51.046;13.692;2023-04-25T13:22:55;99439.69;;;10.73
70819;BMP280;58439;51.046;13.692;2023-04-25T13:25:25;99437.72;;;10.62
70819;BMP280;58439;51.046;13.692;2023-04-25T13:27:52;99446.81;;;10.53
70819;BMP280;58439;51.046;13.692;2023-04-25T13:30:19;99454.66;;;10.53
70819;BMP280;58439;51.046;13.692;2023-04-25T13:32:46;99457.50;;;10.45
70819;BMP280;58439;51.046;13.692;2023-04-25T13:35:14;99463.19;;;10.29
70819;BMP280;58439;51.046;13.692;2023-04-25T13:37:42;99463.59;;;10.06
70819;BMP280;58439;51.046;13.692;2023-04-25T13:40:10;99463.41;;;10.01
70819;BMP280;58439;51.046;13.692;2023-04-25T13:42:38;99462.19;;;10.03
70819;BMP280;58439;51.046;13.692;2023-04-25T13:45:07;99461.97;;;9.98
70819;BMP280;58439;51.046;13.692;2023-04-25T13:47:35;99462.19;;;9.90
70819;BMP280;58439;51.046;13.692;2023-04-25T13:50:03;99465.81;;;9.96
70819;BMP280;58439;51.046;13.692;2023-04-25T13:52:32;99466.41;;;10.17
70819;BMP280;58439;51.046;13.692;2023-04-25T13:54:59;99462.16;;;10.23
70819;BMP280;58439;51.046;13.692;2023-04-25T13:57:26;99470.22;;;10.28
70819;BMP280;58439;51.046;13.692;2023-04-25T13:59:53;99463.34;;;10.40
70819;BMP280;58439;51.046;13.692;2023-04-25T14:02:21;99475.81;;;10.38
70819;BMP280;58439;51.046;13.692;2023-04-25T14:04:48;99468.19;;;10.37
70819;BMP280;58439;51.046;13.692;2023-04-25T14:07:18;99475.97;;;10.50
70819;BMP280;58439;51.046;13.692;2023-04-25T14:09:46;99476.38;;;10.54
70819;BMP280;58439;51.046;13.692;2023-04-25T14:12:16;99479.56;;;10.69
70819;BMP280;58439;51.046;13.692;2023-04-25T14:14:43;99471.47;;;10.77
70819;BMP280;58439;51.046;13.692;2023-04-25T14:17:12;99480.28;;;10.89
70819;BMP280;58439;51.046;13.692;2023-04-25T14:19:39;99479.00;;;11.05
70819;BMP280;58439;51.046;13.692;2023-04-25T14:22:10;99484.75;;;11.27
70819;BMP280;58439;51.046;13.692;2023-04-25T14:24:37;99479.03;;;11.62
70819;BMP280;58439;51.046;13.692;2023-04-25T14:27:05;99481.53;;;12.06
70819;BMP280;58439;51.046;13.692;2023-04-25T14:29:34;99484.50;;;12.83
70819;BMP280;58439;51.046;13.692;2023-04-25T14:32:02;99488.72;;;13.79
70819;BMP280;58439;51.046;13.692;2023-04-25T14:34:29;99480.81;;;14.26